createdAt,value
2019-03-22T00:00:35.458Z,0.70
2019-03-22T00:03:03.574Z,0.80
2019-03-22T00:05:31.715Z,1.20
2019-03-22T00:07:59.841Z,0.90
2019-03-22T00:10:27.953Z,0.90
2019-03-22T00:12:56.225Z,0.80
2019-03-22T00:15:24.381Z,0.80
2019-03-22T00:17:52.476Z,0.90
2019-03-22T00:20:20.615Z,0.80
2019-03-22T00:22:48.730Z,0.90
2019-03-22T00:25:16.960Z,2.00
2019-03-22T00:27:45.116Z,0.90
2019-03-22T00:30:13.474Z,0.70
2019-03-22T00:32:41.577Z,0.70
2019-03-22T00:35:09.862Z,0.70
2019-03-22T00:37:38.019Z,0.70
2019-03-22T00:40:06.480Z,0.90
2019-03-22T00:42:34.572Z,0.80
2019-03-22T00:45:02.857Z,0.70
2019-03-22T00:47:31.403Z,0.60
2019-03-22T00:49:59.553Z,0.60
2019-03-22T00:52:27.698Z,0.60
2019-03-22T00:54:55.748Z,0.30
2019-03-22T00:57:28.384Z,0.30
2019-03-22T00:59:53.850Z,0.30
2019-03-22T01:02:22.006Z,0.10
2019-03-22T01:04:50.116Z,0.10
2019-03-22T01:07:18.389Z,0.30
2019-03-22T01:09:46.510Z,0.10
2019-03-22T01:12:14.649Z,0.00
2019-03-22T01:14:42.753Z,0.90
2019-03-22T01:17:12.906Z,-0.10
2019-03-22T01:19:41.005Z,-0.20
2019-03-22T01:22:09.132Z,-0.20
2019-03-22T01:24:37.328Z,-0.60
2019-03-22T01:27:05.453Z,-0.20
2019-03-22T01:29:33.606Z,-0.30
2019-03-22T01:32:01.758Z,-0.20
2019-03-22T01:34:30.008Z,-0.30
2019-03-22T01:36:58.204Z,-0.40
2019-03-22T01:39:26.319Z,0.00
2019-03-22T01:44:22.327Z,-0.50
2019-03-22T01:46:50.453Z,-0.60
2019-03-22T01:49:18.609Z,-0.60
2019-03-22T01:51:46.749Z,-0.50
2019-03-22T01:54:14.919Z,-0.50
2019-03-22T01:56:43.043Z,-0.50
2019-03-22T01:59:11.242Z,-0.60
2019-03-22T02:01:39.438Z,-0.50
2019-03-22T02:04:07.511Z,-1.00
2019-03-22T02:06:35.694Z,-0.80
2019-03-22T02:09:05.482Z,-0.80
2019-03-22T02:11:33.737Z,-0.80
2019-03-22T02:14:01.908Z,-0.80
2019-03-22T02:18:57.789Z,-0.70
2019-03-22T02:21:25.970Z,-0.40
2019-03-22T02:23:54.065Z,-0.20
2019-03-22T02:26:22.207Z,-0.10
2019-03-22T02:28:50.599Z,-0.20
2019-03-22T02:31:19.059Z,-0.20
2019-03-22T02:33:47.240Z,0.00
2019-03-22T02:36:15.476Z,0.20
2019-03-22T02:38:43.693Z,0.30
2019-03-22T02:41:11.865Z,0.40
2019-03-22T02:43:39.982Z,0.40
2019-03-22T02:46:08.148Z,0.40
2019-03-22T02:48:36.360Z,0.30
2019-03-22T02:51:04.539Z,0.20
2019-03-22T02:53:32.649Z,0.10
2019-03-22T02:56:00.934Z,0.10
2019-03-22T02:58:29.240Z,0.00
2019-03-22T03:00:57.311Z,0.00
2019-03-22T03:03:25.407Z,-0.10
2019-03-22T03:27:28.244Z,-0.30
2019-03-22T03:29:56.342Z,-0.30
2019-03-22T03:32:24.473Z,-0.30
2019-03-22T03:34:52.624Z,-0.20
2019-03-22T03:37:20.710Z,-0.20
2019-03-22T03:39:48.870Z,-0.20
2019-03-22T03:42:16.987Z,-0.40
2019-03-22T03:44:45.143Z,-0.50
2019-03-22T03:47:13.259Z,-0.50
2019-03-22T03:49:41.422Z,-0.50
2019-03-22T03:52:09.580Z,-0.60
2019-03-22T03:54:37.909Z,-0.70
2019-03-22T03:57:06.032Z,-0.90
2019-03-22T03:59:34.127Z,-0.90
2019-03-22T04:02:02.307Z,-1.00
2019-03-22T04:04:30.529Z,-0.80
2019-03-22T04:06:58.629Z,-1.00
2019-03-22T04:09:26.751Z,-1.00
2019-03-22T04:11:55.018Z,-1.10
2019-03-22T04:14:23.139Z,-1.20
2019-03-22T04:16:51.306Z,-1.40
2019-03-22T04:19:19.506Z,-1.30
2019-03-22T04:21:47.622Z,-1.50
2019-03-22T04:24:15.786Z,-1.10
2019-03-22T04:26:43.967Z,-1.50
2019-03-22T04:29:12.183Z,-1.50
2019-03-22T04:34:08.379Z,-1.70
2019-03-22T04:36:36.501Z,-1.80
2019-03-22T04:39:06.801Z,-1.70
2019-03-22T04:41:34.990Z,-1.70
2019-03-22T04:44:03.114Z,-1.80
2019-03-22T04:46:31.912Z,-1.80
2019-03-22T04:49:00.784Z,-1.80
2019-03-22T04:51:29.833Z,-1.80
2019-03-22T04:54:00.711Z,-0.90
2019-03-22T04:56:30.952Z,-1.70
2019-03-22T04:59:00.303Z,-1.70
2019-03-22T05:01:28.948Z,-1.70
2019-03-22T05:03:59.067Z,-1.60
2019-03-22T05:06:27.756Z,-1.40
2019-03-22T05:08:58.601Z,-0.50
2019-03-22T05:11:27.521Z,-1.60
2019-03-22T05:13:58.988Z,-1.60
2019-03-22T05:16:28.885Z,-1.10
2019-03-22T05:18:59.151Z,-0.90
2019-03-22T05:21:27.835Z,-0.60
2019-03-22T05:24:00.565Z,-1.30
2019-03-22T05:26:30.030Z,-0.50
2019-03-22T05:28:59.511Z,-1.20
2019-03-22T05:32:05.703Z,-1.10
2019-03-22T05:34:33.931Z,-1.00
2019-03-22T05:37:02.229Z,0.50
2019-03-22T05:39:30.478Z,-0.80
2019-03-22T05:41:58.735Z,-0.70
2019-03-22T05:44:27.067Z,-0.50
2019-03-22T05:46:55.275Z,-0.40
2019-03-22T05:49:23.519Z,-0.40
2019-03-22T05:51:51.772Z,0.00
2019-03-22T05:54:20.023Z,-0.10
2019-03-22T05:56:48.261Z,0.40
2019-03-22T05:59:17.231Z,0.20
2019-03-22T06:01:45.599Z,0.30
2019-03-22T06:04:13.835Z,0.40
2019-03-22T06:06:42.012Z,0.50
2019-03-22T06:09:10.250Z,0.60
2019-03-22T06:11:38.415Z,0.80
2019-03-22T06:14:06.644Z,0.90
2019-03-22T06:16:34.810Z,1.70
2019-03-22T06:19:03.001Z,1.20
2019-03-22T06:21:31.162Z,1.40
2019-03-22T06:23:59.519Z,1.60
2019-03-22T06:26:27.690Z,1.80
2019-03-22T06:28:55.869Z,2.30
2019-03-22T06:31:24.042Z,2.50
2019-03-22T06:33:52.154Z,2.50
2019-03-22T06:36:20.385Z,2.80
2019-03-22T06:38:48.633Z,3.00
2019-03-22T06:41:16.768Z,3.30
2019-03-22T06:43:44.940Z,3.50
2019-03-22T06:46:13.088Z,3.60
2019-03-22T06:48:41.622Z,3.80
2019-03-22T06:51:09.864Z,4.00
2019-03-22T06:53:38.025Z,4.20
2019-03-22T06:56:06.344Z,4.20
2019-03-22T06:58:34.498Z,4.40
2019-03-22T07:01:02.731Z,4.70
2019-03-22T07:03:30.940Z,4.70
2019-03-22T07:05:59.223Z,4.90
2019-03-22T07:08:27.468Z,5.00
2019-03-22T07:10:55.659Z,5.10
2019-03-22T07:13:23.831Z,5.20
2019-03-22T07:15:52.044Z,5.40
2019-03-22T07:18:20.277Z,5.60
2019-03-22T07:20:48.601Z,5.80
2019-03-22T07:23:16.783Z,6.20
2019-03-22T07:25:44.923Z,6.10
2019-03-22T07:28:13.164Z,6.30
2019-03-22T07:30:41.490Z,6.50
2019-03-22T07:33:09.725Z,6.90
2019-03-22T07:35:38.187Z,6.90
2019-03-22T07:38:06.437Z,7.10
2019-03-22T07:40:34.694Z,7.30
2019-03-22T07:43:02.935Z,7.60
2019-03-22T07:45:31.115Z,7.70
2019-03-22T07:47:59.329Z,7.70
2019-03-22T07:50:27.807Z,7.70
2019-03-22T07:52:55.999Z,7.80
2019-03-22T07:55:24.246Z,8.00
2019-03-22T07:57:53.147Z,8.20
2019-03-22T08:00:30.551Z,8.20
2019-03-22T08:03:09.089Z,8.30
2019-03-22T08:05:37.449Z,8.60
2019-03-22T08:08:08.034Z,8.50
2019-03-22T08:10:38.879Z,7.40
2019-03-22T08:13:07.637Z,8.60
2019-03-22T08:15:42.468Z,8.60
2019-03-22T08:18:10.686Z,8.70
2019-03-22T08:20:39.081Z,8.80
2019-03-22T08:23:17.645Z,9.10
2019-03-22T08:25:45.841Z,9.00
2019-03-22T08:28:14.124Z,9.10
2019-03-22T08:30:43.476Z,9.30
2019-03-22T08:33:11.728Z,9.80
2019-03-22T08:35:39.940Z,9.70
2019-03-22T08:38:08.248Z,9.60
2019-03-22T08:40:36.934Z,9.80
2019-03-22T08:43:05.749Z,10.10
2019-03-22T08:45:34.045Z,10.00
2019-03-22T08:48:02.495Z,10.10
2019-03-22T08:50:30.603Z,10.20
2019-03-22T08:52:58.769Z,10.20
2019-03-22T08:55:26.974Z,10.10
2019-03-22T08:57:55.248Z,10.20
2019-03-22T09:00:23.480Z,10.40
2019-03-22T09:02:51.639Z,10.50
2019-03-22T09:05:19.907Z,10.50
2019-03-22T09:07:48.091Z,10.60
2019-03-22T09:10:16.448Z,10.70
2019-03-22T09:12:44.662Z,10.70
2019-03-22T09:15:13.434Z,11.00
2019-03-22T09:17:41.598Z,11.10
2019-03-22T09:20:10.036Z,11.10
2019-03-22T09:22:38.084Z,11.40
2019-03-22T09:25:07.345Z,11.50
2019-03-22T09:27:36.743Z,11.50
2019-03-22T09:30:06.781Z,11.70
2019-03-22T09:32:34.899Z,11.80
2019-03-22T09:35:03.227Z,11.80
2019-03-22T09:37:31.311Z,12.00
2019-03-22T09:39:59.640Z,12.00
2019-03-22T09:42:27.847Z,12.00
2019-03-22T09:44:55.957Z,12.00
2019-03-22T09:47:24.651Z,12.20
2019-03-22T09:49:52.831Z,12.40
2019-03-22T09:52:21.005Z,12.50
2019-03-22T09:54:49.103Z,12.80
2019-03-22T09:57:17.213Z,12.90
2019-03-22T09:59:45.612Z,12.80
2019-03-22T10:02:14.045Z,12.80
2019-03-22T10:04:42.375Z,12.80
2019-03-22T10:07:10.513Z,13.10
2019-03-22T10:09:39.203Z,13.30
2019-03-22T10:12:07.690Z,13.30
2019-03-22T10:14:35.868Z,13.30
2019-03-22T10:17:04.033Z,13.40
2019-03-22T10:19:33.034Z,13.50
2019-03-22T10:22:02.473Z,13.60
2019-03-22T10:24:30.584Z,13.60
2019-03-22T10:26:58.787Z,13.80
2019-03-22T10:29:26.885Z,13.80
2019-03-22T10:31:55.080Z,14.00
2019-03-22T10:34:23.084Z,14.10
2019-03-22T10:36:51.473Z,14.10
2019-03-22T10:39:19.558Z,14.10
2019-03-22T10:41:47.800Z,14.40
2019-03-22T10:44:15.840Z,14.40
2019-03-22T10:46:44.205Z,14.40
2019-03-22T10:49:12.384Z,14.50
2019-03-22T10:51:40.448Z,14.50
2019-03-22T10:54:08.581Z,14.60
2019-03-22T10:56:36.895Z,14.80
2019-03-22T10:59:05.026Z,14.90
2019-03-22T11:01:46.542Z,14.90
2019-03-22T11:06:31.403Z,15.30
2019-03-22T11:08:59.510Z,15.10
2019-03-22T11:11:27.724Z,15.10
2019-03-22T11:13:56.195Z,15.30
2019-03-22T11:16:24.570Z,15.40
2019-03-22T11:18:53.663Z,15.50
2019-03-22T11:21:22.145Z,15.70
2019-03-22T11:23:50.241Z,15.60
2019-03-22T11:26:18.362Z,15.80
2019-03-22T11:28:46.672Z,15.90
2019-03-22T11:31:15.024Z,16.00
2019-03-22T11:33:43.112Z,16.00
2019-03-22T11:36:11.206Z,16.20
2019-03-22T11:38:40.664Z,16.20
2019-03-22T11:41:08.805Z,16.50
2019-03-22T11:43:36.988Z,16.70
2019-03-22T11:46:05.426Z,16.50
2019-03-22T11:48:34.025Z,16.50
2019-03-22T11:51:02.465Z,16.60
2019-03-22T11:53:30.634Z,16.60
2019-03-22T11:55:58.788Z,16.50
2019-03-22T11:58:27.094Z,16.70
2019-03-22T12:00:55.264Z,16.70
2019-03-22T12:03:24.612Z,16.90
2019-03-22T12:05:52.715Z,16.90
2019-03-22T12:08:20.833Z,17.20
2019-03-22T12:10:49.889Z,17.10
2019-03-22T12:13:19.282Z,16.80
2019-03-22T12:15:47.986Z,16.80
2019-03-22T12:18:16.473Z,16.70
2019-03-22T12:20:44.714Z,16.50
2019-03-22T12:23:13.005Z,16.70
2019-03-22T12:25:41.329Z,16.80
2019-03-22T12:28:09.790Z,16.80
2019-03-22T12:30:39.360Z,17.00
2019-03-22T12:33:07.934Z,16.90
2019-03-22T12:35:37.461Z,16.80
2019-03-22T12:38:05.817Z,16.70
2019-03-22T12:40:34.451Z,16.80
2019-03-22T12:43:02.893Z,17.00
2019-03-22T12:45:31.572Z,17.20
2019-03-22T12:48:00.385Z,17.30
2019-03-22T12:50:30.328Z,17.30
2019-03-22T12:52:59.019Z,17.30
2019-03-22T12:55:27.612Z,17.20
2019-03-22T12:58:03.867Z,17.10
2019-03-22T13:00:35.482Z,17.30
2019-03-22T13:03:07.657Z,17.10
2019-03-22T13:05:37.233Z,17.20
2019-03-22T13:08:16.560Z,17.00
2019-03-22T13:10:48.072Z,16.80
2019-03-22T13:13:16.765Z,17.10
2019-03-22T13:18:26.930Z,17.10
2019-03-22T13:20:56.114Z,17.10
2019-03-22T13:23:24.439Z,17.10
2019-03-22T13:25:52.624Z,17.10
2019-03-22T13:28:20.873Z,17.20
2019-03-22T13:30:49.037Z,17.40
2019-03-22T13:33:17.226Z,17.60
2019-03-22T13:35:45.342Z,17.70
2019-03-22T13:38:13.468Z,17.70
2019-03-22T13:40:41.598Z,17.70
2019-03-22T13:43:09.757Z,17.70
2019-03-22T13:45:37.948Z,17.70
2019-03-22T13:48:06.158Z,17.60
2019-03-22T13:50:34.440Z,17.90
2019-03-22T13:53:02.627Z,18.10
2019-03-22T13:55:30.778Z,18.10
2019-03-22T13:57:59.087Z,18.00
2019-03-22T14:00:27.428Z,18.00
2019-03-22T14:03:03.175Z,18.10
2019-03-22T14:05:25.749Z,18.10
2019-03-22T14:07:54.076Z,18.10
2019-03-22T14:10:31.306Z,18.00
2019-03-22T14:12:59.886Z,18.20
2019-03-22T14:15:28.153Z,18.40
2019-03-22T14:17:56.560Z,18.20
2019-03-22T14:20:24.727Z,18.30
2019-03-22T14:22:53.926Z,18.50
2019-03-22T14:25:22.219Z,18.50
2019-03-22T14:27:50.394Z,18.60
2019-03-22T14:30:18.507Z,18.80
2019-03-22T14:32:46.740Z,19.00
2019-03-22T14:35:14.912Z,19.00
2019-03-22T14:37:43.084Z,19.00
2019-03-22T14:40:15.554Z,18.80
2019-03-22T14:42:41.710Z,19.00
2019-03-22T14:45:10.424Z,18.70
2019-03-22T14:47:38.623Z,18.70
2019-03-22T14:50:06.878Z,19.10
2019-03-22T14:52:35.042Z,19.40
2019-03-22T14:55:03.479Z,19.10
2019-03-22T14:57:31.595Z,18.70
2019-03-22T14:59:59.750Z,18.80
2019-03-22T15:02:28.127Z,19.10
2019-03-22T15:04:56.289Z,19.00
2019-03-22T15:07:24.729Z,18.90
2019-03-22T15:09:52.813Z,18.90
2019-03-22T15:12:21.396Z,18.90
2019-03-22T15:15:01.521Z,18.90
2019-03-22T15:17:55.058Z,18.50
2019-03-22T15:20:50.598Z,18.40
2019-03-22T15:23:38.680Z,18.30
2019-03-22T15:26:38.329Z,18.90
2019-03-22T15:29:40.950Z,18.90
2019-03-22T15:32:31.507Z,19.50
2019-03-22T15:35:17.652Z,19.80
2019-03-22T15:38:04.405Z,20.20
2019-03-22T15:40:32.590Z,20.80
2019-03-22T15:43:00.746Z,21.20
2019-03-22T15:45:30.258Z,21.20
2019-03-22T15:47:58.650Z,21.10
2019-03-22T15:50:26.837Z,20.60
2019-03-22T15:52:55.222Z,20.00
2019-03-22T15:55:23.475Z,20.00
2019-03-22T15:57:51.716Z,19.80
2019-03-22T16:00:19.914Z,19.90
2019-03-22T16:02:48.250Z,20.20
2019-03-22T16:05:17.030Z,19.80
2019-03-22T16:07:45.270Z,19.80
2019-03-22T16:10:13.941Z,20.10
2019-03-22T16:12:42.071Z,20.00
2019-03-22T16:15:10.376Z,19.80
2019-03-22T16:17:38.569Z,19.90
2019-03-22T16:20:07.489Z,20.40
2019-03-22T16:22:35.740Z,20.60
2019-03-22T16:25:04.841Z,20.50
2019-03-22T16:27:33.036Z,20.20
2019-03-22T16:30:01.334Z,19.70
2019-03-22T16:32:29.509Z,19.20
2019-03-22T16:34:57.678Z,18.70
2019-03-22T16:37:25.857Z,18.00
2019-03-22T16:39:54.045Z,17.60
2019-03-22T16:42:22.262Z,17.30
2019-03-22T16:44:50.393Z,16.90
2019-03-22T16:47:18.664Z,16.40
2019-03-22T16:49:47.107Z,16.00
2019-03-22T16:52:15.362Z,15.50
2019-03-22T16:54:43.612Z,15.10
2019-03-22T16:57:11.764Z,14.70
2019-03-22T16:59:40.098Z,14.50
2019-03-22T17:02:08.274Z,14.10
2019-03-22T17:04:36.432Z,13.80
2019-03-22T17:07:04.825Z,13.50
2019-03-22T17:09:32.995Z,13.30
2019-03-22T17:12:01.278Z,13.00
2019-03-22T17:14:29.405Z,12.80
2019-03-22T17:16:57.564Z,12.60
2019-03-22T17:19:25.691Z,12.40
2019-03-22T17:21:53.812Z,12.30
2019-03-22T17:24:22.008Z,12.10
2019-03-22T17:26:50.080Z,12.00
2019-03-22T17:29:18.216Z,11.80
2019-03-22T17:31:46.384Z,11.70
2019-03-22T17:34:14.701Z,11.60
2019-03-22T17:36:43.110Z,11.50
2019-03-22T17:39:11.245Z,11.40
2019-03-22T17:41:39.381Z,11.20
2019-03-22T17:44:07.515Z,11.00
2019-03-22T17:46:35.643Z,10.70
2019-03-22T17:49:03.842Z,10.60
2019-03-22T17:51:31.980Z,10.50
2019-03-22T17:54:00.198Z,10.40
2019-03-22T17:56:28.314Z,10.30
2019-03-22T17:58:56.492Z,10.20
2019-03-22T18:01:24.584Z,10.20
2019-03-22T18:03:52.708Z,10.20
2019-03-22T18:06:20.883Z,10.10
2019-03-22T18:08:49.028Z,10.10
2019-03-22T18:11:17.160Z,9.90
2019-03-22T18:13:45.327Z,9.80
2019-03-22T18:16:13.382Z,9.80
2019-03-22T18:18:41.550Z,9.60
2019-03-22T18:21:09.633Z,9.60
2019-03-22T18:23:37.805Z,9.40
2019-03-22T18:26:05.986Z,9.40
2019-03-22T18:28:34.174Z,9.20
2019-03-22T18:31:02.337Z,9.20
2019-03-22T18:33:30.497Z,9.10
2019-03-22T18:35:58.610Z,9.10
2019-03-22T18:38:26.707Z,9.00
2019-03-22T18:40:54.887Z,9.00
2019-03-22T18:43:23.060Z,9.10
2019-03-22T18:45:51.188Z,9.20
2019-03-22T18:48:19.354Z,9.20
2019-03-22T18:50:56.384Z,9.20
2019-03-22T18:53:17.473Z,9.10
2019-03-22T18:55:45.688Z,9.10
2019-03-22T18:58:13.897Z,9.10
2019-03-22T19:00:42.025Z,9.00
2019-03-22T19:03:10.153Z,8.90
2019-03-22T19:05:38.359Z,8.80
2019-03-22T19:08:06.542Z,8.70
2019-03-22T19:10:34.734Z,8.70
2019-03-22T19:13:02.970Z,8.50
2019-03-22T19:15:31.221Z,8.40
2019-03-22T19:17:59.381Z,8.30
2019-03-22T19:20:27.578Z,8.30
2019-03-22T19:22:55.765Z,8.30
2019-03-22T19:25:23.905Z,8.40
2019-03-22T19:27:52.077Z,8.40
2019-03-22T19:30:20.371Z,8.50
2019-03-22T19:32:48.673Z,8.50
2019-03-22T19:35:17.010Z,8.50
2019-03-22T19:37:45.149Z,8.40
2019-03-22T19:40:14.445Z,8.40
2019-03-22T19:42:42.667Z,8.30
2019-03-22T19:45:10.999Z,8.30
2019-03-22T19:47:39.266Z,8.20
2019-03-22T19:50:07.624Z,8.20
2019-03-22T19:52:35.889Z,8.10
2019-03-22T19:55:05.028Z,8.00
2019-03-22T19:57:33.135Z,8.00
2019-03-22T20:00:01.502Z,7.90
2019-03-22T20:02:29.653Z,7.80
2019-03-22T20:05:04.735Z,7.80
2019-03-22T20:07:28.010Z,7.70
2019-03-22T20:09:56.082Z,7.50
2019-03-22T20:12:24.293Z,7.50
2019-03-22T20:14:52.624Z,7.50
2019-03-22T20:17:20.910Z,7.40
2019-03-22T20:19:49.131Z,7.20
2019-03-22T20:22:17.448Z,7.10
2019-03-22T20:24:45.546Z,7.10
2019-03-22T20:27:13.789Z,7.10
2019-03-22T20:29:42.004Z,7.10
2019-03-22T20:32:10.210Z,7.00
2019-03-22T20:34:38.515Z,6.90
2019-03-22T20:37:06.643Z,6.90
2019-03-22T20:39:34.876Z,7.00
2019-03-22T20:42:02.998Z,7.00
2019-03-22T20:44:34.032Z,7.00
2019-03-22T20:47:01.325Z,7.10
2019-03-22T20:49:29.530Z,7.20
2019-03-22T20:51:57.668Z,7.10
2019-03-22T20:54:25.969Z,7.00
2019-03-22T20:56:54.181Z,6.90
2019-03-22T20:59:22.337Z,6.90
2019-03-22T21:01:50.531Z,6.80
2019-03-22T21:04:18.703Z,6.70
2019-03-22T21:06:46.900Z,6.70
2019-03-22T21:09:14.981Z,6.70
2019-03-22T21:11:43.158Z,6.70
2019-03-22T21:14:11.430Z,6.80
2019-03-22T21:16:39.565Z,6.70
2019-03-22T21:19:07.685Z,6.60
2019-03-22T21:21:36.772Z,6.60
2019-03-22T21:24:05.045Z,6.60
2019-03-22T21:26:33.140Z,6.50
2019-03-22T21:29:01.285Z,6.40
2019-03-22T21:31:29.447Z,6.40
2019-03-22T21:33:57.559Z,6.30
2019-03-22T21:36:25.671Z,6.20
2019-03-22T21:38:53.823Z,6.10
2019-03-22T21:41:22.077Z,6.20
2019-03-22T21:43:50.352Z,6.20
2019-03-22T21:46:18.513Z,6.20
2019-03-22T21:48:46.630Z,6.20
2019-03-22T21:51:14.774Z,6.20
2019-03-22T21:53:43.030Z,6.20
2019-03-22T21:56:11.200Z,6.40
2019-03-22T21:58:39.345Z,6.30
2019-03-22T22:01:07.497Z,6.30
2019-03-22T22:03:35.571Z,6.30
2019-03-22T22:06:03.697Z,6.30
2019-03-22T22:08:31.933Z,6.20
2019-03-22T22:11:00.319Z,6.10
2019-03-22T22:13:28.444Z,6.00
2019-03-22T22:15:56.585Z,5.90
2019-03-22T22:18:24.694Z,5.80
2019-03-22T22:20:52.837Z,5.60
2019-03-22T22:23:21.051Z,5.60
2019-03-22T22:25:49.194Z,5.60
2019-03-22T22:28:17.327Z,5.60
2019-03-22T22:30:45.537Z,5.70
2019-03-22T22:33:13.631Z,5.70
2019-03-22T22:35:41.771Z,5.80
2019-03-22T22:38:09.894Z,5.80
2019-03-22T22:40:38.041Z,5.80
2019-03-22T22:43:06.223Z,5.80
2019-03-22T22:45:34.301Z,5.70
2019-03-22T22:48:02.601Z,5.70
2019-03-22T22:50:30.914Z,5.60
2019-03-22T22:52:59.028Z,5.50
2019-03-22T22:55:27.225Z,5.50
2019-03-22T22:57:55.342Z,5.50
2019-03-22T23:00:25.041Z,5.70
2019-03-22T23:02:53.221Z,5.70
2019-03-22T23:05:21.380Z,5.70
2019-03-22T23:07:49.422Z,5.70
2019-03-22T23:10:17.554Z,5.70
2019-03-22T23:12:45.806Z,5.60
2019-03-22T23:15:14.122Z,5.50
2019-03-22T23:17:42.345Z,5.50
2019-03-22T23:25:20.061Z,5.30
2019-03-22T23:27:48.279Z,5.20
2019-03-22T23:30:16.680Z,5.20
2019-03-22T23:32:44.981Z,5.10
2019-03-22T23:35:13.374Z,5.20
2019-03-22T23:37:41.556Z,5.00
2019-03-22T23:40:10.377Z,5.00
2019-03-22T23:42:38.450Z,4.90
2019-03-22T23:45:06.914Z,4.80
2019-03-22T23:47:35.210Z,4.80
2019-03-22T23:50:03.736Z,4.70
2019-03-22T23:52:31.912Z,4.70
2019-03-22T23:55:00.343Z,4.50
2019-03-22T23:57:28.653Z,4.50
2019-03-22T23:59:56.883Z,4.50
